sensor_id;sensor_type;location;lat;lon;timestamp;pressure;altitude;pressure_sealevel;temperature
15607;BMP180;7865;50.918;4.510;2023-05-29T00:00:40;101672.00;;;13.80
15607;BMP180;7865;50.918;4.510;2023-05-29T00:05:43;101680.00;;;13.80
15607;BMP180;7865;50.918;4.510;2023-05-29T00:10:44;101680.00;;;13.70
15607;BMP180;7865;50.918;4.510;2023-05-29T00:15:46;101696.00;;;13.70
15607;BMP180;7865;50.918;4.510;2023-05-29T00:20:48;101696.00;;;13.60
15607;BMP180;7865;50.918;4.510;2023-05-29T00:25:49;101689.00;;;13.50
15607;BMP180;7865;50.918;4.510;2023-05-29T00:30:51;101698.00;;;13.40
15607;BMP180;7865;50.918;4.510;2023-05-29T00:35:52;101699.00;;;13.30
15607;BMP180;7865;50.918;4.510;2023-05-29T00:40:53;101698.00;;;13.20
15607;BMP180;7865;50.918;4.510;2023-05-29T00:45:55;101698.00;;;13.20
15607;BMP180;7865;50.918;4.510;2023-05-29T00:50:56;101704.00;;;13.10
15607;BMP180;7865;50.918;4.510;2023-05-29T00:55:59;101702.00;;;13.00
15607;BMP180;7865;50.918;4.510;2023-05-29T01:01:01;101702.00;;;12.90
15607;BMP180;7865;50.918;4.510;2023-05-29T01:06:04;101709.00;;;12.80
15607;BMP180;7865;50.918;4.510;2023-05-29T01:11:15;101718.00;;;12.70
15607;BMP180;7865;50.918;4.510;2023-05-29T01:16:28;101711.00;;;12.60
15607;BMP180;7865;50.918;4.510;2023-05-29T01:27:09;101730.00;;;12.50
15607;BMP180;7865;50.918;4.510;2023-05-29T01:32:11;101727.00;;;12.60
15607;BMP180;7865;50.918;4.510;2023-05-29T01:37:12;101730.00;;;12.60
15607;BMP180;7865;50.918;4.510;2023-05-29T01:42:14;101741.00;;;12.60
15607;BMP180;7865;50.918;4.510;2023-05-29T01:47:16;101743.00;;;12.60
15607;BMP180;7865;50.918;4.510;2023-05-29T01:52:18;101742.00;;;12.60
15607;BMP180;7865;50.918;4.510;2023-05-29T01:57:19;101739.00;;;12.60
15607;BMP180;7865;50.918;4.510;2023-05-29T02:02:22;101737.00;;;12.70
15607;BMP180;7865;50.918;4.510;2023-05-29T02:07:26;101749.00;;;12.70
15607;BMP180;7865;50.918;4.510;2023-05-29T02:12:27;101750.00;;;12.60
15607;BMP180;7865;50.918;4.510;2023-05-29T02:17:28;101747.00;;;12.60
15607;BMP180;7865;50.918;4.510;2023-05-29T02:22:30;101752.00;;;12.60
15607;BMP180;7865;50.918;4.510;2023-05-29T02:27:33;101747.00;;;12.40
15607;BMP180;7865;50.918;4.510;2023-05-29T02:32:35;101758.00;;;12.30
15607;BMP180;7865;50.918;4.510;2023-05-29T02:37:39;101759.00;;;12.10
15607;BMP180;7865;50.918;4.510;2023-05-29T02:42:40;101745.00;;;12.00
15607;BMP180;7865;50.918;4.510;2023-05-29T02:47:42;101754.00;;;11.80
15607;BMP180;7865;50.918;4.510;2023-05-29T02:52:43;101754.00;;;11.70
15607;BMP180;7865;50.918;4.510;2023-05-29T02:57:45;101752.00;;;11.60
15607;BMP180;7865;50.918;4.510;2023-05-29T03:02:46;101753.00;;;11.50
15607;BMP180;7865;50.918;4.510;2023-05-29T03:07:48;101758.00;;;11.40
15607;BMP180;7865;50.918;4.510;2023-05-29T03:12:49;101761.00;;;11.30
15607;BMP180;7865;50.918;4.510;2023-05-29T03:17:50;101768.00;;;11.20
15607;BMP180;7865;50.918;4.510;2023-05-29T03:22:57;101778.00;;;11.10
15607;BMP180;7865;50.918;4.510;2023-05-29T03:27:59;101775.00;;;11.10
15607;BMP180;7865;50.918;4.510;2023-05-29T03:33:01;101775.00;;;11.00
15607;BMP180;7865;50.918;4.510;2023-05-29T03:38:23;101776.00;;;11.00
15607;BMP180;7865;50.918;4.510;2023-05-29T03:43:28;101773.00;;;10.90
15607;BMP180;7865;50.918;4.510;2023-05-29T03:48:29;101774.00;;;10.90
15607;BMP180;7865;50.918;4.510;2023-05-29T03:53:31;101792.00;;;10.90
15607;BMP180;7865;50.918;4.510;2023-05-29T03:58:32;101795.00;;;10.90
15607;BMP180;7865;50.918;4.510;2023-05-29T04:03:35;101798.00;;;11.00
15607;BMP180;7865;50.918;4.510;2023-05-29T04:08:37;101805.00;;;11.00
15607;BMP180;7865;50.918;4.510;2023-05-29T04:13:38;101803.00;;;11.10
15607;BMP180;7865;50.918;4.510;2023-05-29T04:18:41;101818.00;;;11.20
15607;BMP180;7865;50.918;4.510;2023-05-29T04:23:42;101833.00;;;11.20
15607;BMP180;7865;50.918;4.510;2023-05-29T04:28:44;101838.00;;;11.20
15607;BMP180;7865;50.918;4.510;2023-05-29T04:33:46;101833.00;;;11.30
15607;BMP180;7865;50.918;4.510;2023-05-29T04:38:48;101834.00;;;11.40
15607;BMP180;7865;50.918;4.510;2023-05-29T04:43:52;101835.00;;;11.40
15607;BMP180;7865;50.918;4.510;2023-05-29T04:48:54;101853.00;;;11.50
15607;BMP180;7865;50.918;4.510;2023-05-29T04:53:56;101857.00;;;11.70
15607;BMP180;7865;50.918;4.510;2023-05-29T04:58:58;101853.00;;;11.90
15607;BMP180;7865;50.918;4.510;2023-05-29T05:04:00;101855.00;;;12.10
15607;BMP180;7865;50.918;4.510;2023-05-29T05:09:01;101855.00;;;12.30
15607;BMP180;7865;50.918;4.510;2023-05-29T05:14:03;101871.00;;;12.60
15607;BMP180;7865;50.918;4.510;2023-05-29T05:19:04;101859.00;;;12.90
15607;BMP180;7865;50.918;4.510;2023-05-29T05:24:09;101865.00;;;13.20
15607;BMP180;7865;50.918;4.510;2023-05-29T05:29:14;101865.00;;;13.40
15607;BMP180;7865;50.918;4.510;2023-05-29T05:34:16;101864.00;;;13.60
15607;BMP180;7865;50.918;4.510;2023-05-29T05:39:19;101871.00;;;13.90
15607;BMP180;7865;50.918;4.510;2023-05-29T05:44:21;101872.00;;;14.40
15607;BMP180;7865;50.918;4.510;2023-05-29T05:49:33;101878.00;;;14.60
15607;BMP180;7865;50.918;4.510;2023-05-29T05:54:35;101880.00;;;14.60
15607;BMP180;7865;50.918;4.510;2023-05-29T05:59:36;101880.00;;;14.80
15607;BMP180;7865;50.918;4.510;2023-05-29T06:04:40;101884.00;;;14.90
15607;BMP180;7865;50.918;4.510;2023-05-29T06:09:42;101886.00;;;15.30
15607;BMP180;7865;50.918;4.510;2023-05-29T06:14:44;101893.00;;;15.70
15607;BMP180;7865;50.918;4.510;2023-05-29T06:19:45;101881.00;;;15.90
15607;BMP180;7865;50.918;4.510;2023-05-29T06:24:47;101881.00;;;16.30
15607;BMP180;7865;50.918;4.510;2023-05-29T06:29:48;101883.00;;;16.40
15607;BMP180;7865;50.918;4.510;2023-05-29T06:34:49;101881.00;;;16.70
15607;BMP180;7865;50.918;4.510;2023-05-29T06:39:51;101880.00;;;16.90
15607;BMP180;7865;50.918;4.510;2023-05-29T06:44:52;101888.00;;;17.20
15607;BMP180;7865;50.918;4.510;2023-05-29T06:49:54;101889.00;;;17.60
15607;BMP180;7865;50.918;4.510;2023-05-29T06:54:55;101887.00;;;17.80
15607;BMP180;7865;50.918;4.510;2023-05-29T06:59:58;101895.00;;;18.10
15607;BMP180;7865;50.918;4.510;2023-05-29T07:04:59;101894.00;;;18.40
15607;BMP180;7865;50.918;4.510;2023-05-29T07:10:17;101894.00;;;18.40
15607;BMP180;7865;50.918;4.510;2023-05-29T07:15:19;101882.00;;;18.80
15607;BMP180;7865;50.918;4.510;2023-05-29T07:20:20;101882.00;;;19.40
15607;BMP180;7865;50.918;4.510;2023-05-29T07:25:23;101882.00;;;19.70
15607;BMP180;7865;50.918;4.510;2023-05-29T07:30:24;101880.00;;;19.80
15607;BMP180;7865;50.918;4.510;2023-05-29T07:35:28;101892.00;;;20.10
15607;BMP180;7865;50.918;4.510;2023-05-29T07:40:29;101890.00;;;20.30
15607;BMP180;7865;50.918;4.510;2023-05-29T07:45:33;101882.00;;;20.60
15607;BMP180;7865;50.918;4.510;2023-05-29T07:50:35;101878.00;;;20.70
15607;BMP180;7865;50.918;4.510;2023-05-29T07:55:38;101886.00;;;21.00
15607;BMP180;7865;50.918;4.510;2023-05-29T08:00:39;101883.00;;;21.30
15607;BMP180;7865;50.918;4.510;2023-05-29T08:05:42;101888.00;;;21.40
15607;BMP180;7865;50.918;4.510;2023-05-29T08:10:47;101891.00;;;21.40
15607;BMP180;7865;50.918;4.510;2023-05-29T08:15:48;101883.00;;;21.30
15607;BMP180;7865;50.918;4.510;2023-05-29T08:20:49;101885.00;;;21.40
15607;BMP180;7865;50.918;4.510;2023-05-29T08:25:52;101889.00;;;21.70
15607;BMP180;7865;50.918;4.510;2023-05-29T08:30:54;101891.00;;;22.50
15607;BMP180;7865;50.918;4.510;2023-05-29T08:35:57;101883.00;;;22.80
15607;BMP180;7865;50.918;4.510;2023-05-29T08:40:59;101887.00;;;23.30
15607;BMP180;7865;50.918;4.510;2023-05-29T08:46:02;101886.00;;;23.60
15607;BMP180;7865;50.918;4.510;2023-05-29T08:51:04;101897.00;;;23.60
15607;BMP180;7865;50.918;4.510;2023-05-29T08:56:06;101898.00;;;23.60
15607;BMP180;7865;50.918;4.510;2023-05-29T09:01:08;101900.00;;;23.70
15607;BMP180;7865;50.918;4.510;2023-05-29T09:06:09;101908.00;;;24.00
15607;BMP180;7865;50.918;4.510;2023-05-29T09:11:11;101908.00;;;23.90
15607;BMP180;7865;50.918;4.510;2023-05-29T09:16:12;101903.00;;;24.00
15607;BMP180;7865;50.918;4.510;2023-05-29T09:21:26;101899.00;;;24.40
15607;BMP180;7865;50.918;4.510;2023-05-29T09:26:28;101919.00;;;24.40
15607;BMP180;7865;50.918;4.510;2023-05-29T09:31:29;101915.00;;;24.50
15607;BMP180;7865;50.918;4.510;2023-05-29T09:36:31;101921.00;;;24.70
15607;BMP180;7865;50.918;4.510;2023-05-29T09:41:33;101923.00;;;24.70
15607;BMP180;7865;50.918;4.510;2023-05-29T09:46:35;101916.00;;;25.00
15607;BMP180;7865;50.918;4.510;2023-05-29T09:51:36;101921.00;;;24.70
15607;BMP180;7865;50.918;4.510;2023-05-29T09:56:39;101912.00;;;24.90
15607;BMP180;7865;50.918;4.510;2023-05-29T10:01:43;101898.00;;;25.30
15607;BMP180;7865;50.918;4.510;2023-05-29T10:06:48;101904.00;;;25.90
15607;BMP180;7865;50.918;4.510;2023-05-29T10:11:50;101900.00;;;26.00
15607;BMP180;7865;50.918;4.510;2023-05-29T10:16:55;101896.00;;;26.00
15607;BMP180;7865;50.918;4.510;2023-05-29T10:22:01;101892.00;;;25.80
15607;BMP180;7865;50.918;4.510;2023-05-29T10:27:04;101903.00;;;25.80
15607;BMP180;7865;50.918;4.510;2023-05-29T10:32:26;101899.00;;;26.10
15607;BMP180;7865;50.918;4.510;2023-05-29T10:37:51;101901.00;;;26.00
15607;BMP180;7865;50.918;4.510;2023-05-29T10:42:53;101907.00;;;26.30
15607;BMP180;7865;50.918;4.510;2023-05-29T10:53:10;101888.00;;;27.00
15607;BMP180;7865;50.918;4.510;2023-05-29T10:58:18;101885.00;;;27.00
15607;BMP180;7865;50.918;4.510;2023-05-29T11:03:21;101887.00;;;27.00
15607;BMP180;7865;50.918;4.510;2023-05-29T11:08:42;101894.00;;;27.60
15607;BMP180;7865;50.918;4.510;2023-05-29T11:13:53;101888.00;;;28.00
15607;BMP180;7865;50.918;4.510;2023-05-29T11:18:56;101875.00;;;28.10
15607;BMP180;7865;50.918;4.510;2023-05-29T11:24:02;101874.00;;;28.10
15607;BMP180;7865;50.918;4.510;2023-05-29T11:29:08;101863.00;;;28.20
15607;BMP180;7865;50.918;4.510;2023-05-29T11:34:14;101861.00;;;28.30
15607;BMP180;7865;50.918;4.510;2023-05-29T11:39:16;101872.00;;;28.60
15607;BMP180;7865;50.918;4.510;2023-05-29T11:44:17;101864.00;;;28.30
15607;BMP180;7865;50.918;4.510;2023-05-29T11:49:45;101856.00;;;28.30
15607;BMP180;7865;50.918;4.510;2023-05-29T11:54:47;101850.00;;;28.10
15607;BMP180;7865;50.918;4.510;2023-05-29T11:59:51;101849.00;;;28.10
15607;BMP180;7865;50.918;4.510;2023-05-29T12:05:03;101842.00;;;28.60
15607;BMP180;7865;50.918;4.510;2023-05-29T12:10:16;101849.00;;;29.10
15607;BMP180;7865;50.918;4.510;2023-05-29T12:15:18;101836.00;;;29.20
15607;BMP180;7865;50.918;4.510;2023-05-29T12:20:23;101844.00;;;29.10
15607;BMP180;7865;50.918;4.510;2023-05-29T12:25:25;101843.00;;;28.90
15607;BMP180;7865;50.918;4.510;2023-05-29T12:30:26;101848.00;;;29.00
15607;BMP180;7865;50.918;4.510;2023-05-29T12:35:35;101849.00;;;28.90
15607;BMP180;7865;50.918;4.510;2023-05-29T12:40:36;101840.00;;;28.80
15607;BMP180;7865;50.918;4.510;2023-05-29T12:45:39;101836.00;;;28.80
15607;BMP180;7865;50.918;4.510;2023-05-29T12:50:40;101835.00;;;29.10
15607;BMP180;7865;50.918;4.510;2023-05-29T12:55:43;101852.00;;;29.30
15607;BMP180;7865;50.918;4.510;2023-05-29T13:00:44;101843.00;;;29.00
15607;BMP180;7865;50.918;4.510;2023-05-29T13:05:50;101848.00;;;29.10
15607;BMP180;7865;50.918;4.510;2023-05-29T13:10:51;101854.00;;;28.80
15607;BMP180;7865;50.918;4.510;2023-05-29T13:15:52;101838.00;;;29.00
15607;BMP180;7865;50.918;4.510;2023-05-29T13:20:54;101831.00;;;28.90
15607;BMP180;7865;50.918;4.510;2023-05-29T13:25:55;101847.00;;;28.60
15607;BMP180;7865;50.918;4.510;2023-05-29T13:30:57;101834.00;;;28.60
15607;BMP180;7865;50.918;4.510;2023-05-29T13:35:59;101843.00;;;28.60
15607;BMP180;7865;50.918;4.510;2023-05-29T13:41:01;101841.00;;;28.70
15607;BMP180;7865;50.918;4.510;2023-05-29T13:46:02;101833.00;;;28.70
15607;BMP180;7865;50.918;4.510;2023-05-29T13:51:03;101849.00;;;28.60
15607;BMP180;7865;50.918;4.510;2023-05-29T13:56:05;101833.00;;;28.40
15607;BMP180;7865;50.918;4.510;2023-05-29T14:01:06;101837.00;;;28.40
15607;BMP180;7865;50.918;4.510;2023-05-29T14:06:08;101839.00;;;28.10
15607;BMP180;7865;50.918;4.510;2023-05-29T14:11:09;101828.00;;;28.00
15607;BMP180;7865;50.918;4.510;2023-05-29T14:16:11;101819.00;;;27.90
15607;BMP180;7865;50.918;4.510;2023-05-29T14:21:13;101823.00;;;27.50
15607;BMP180;7865;50.918;4.510;2023-05-29T14:26:14;101827.00;;;27.50
15607;BMP180;7865;50.918;4.510;2023-05-29T14:31:15;101817.00;;;27.50
15607;BMP180;7865;50.918;4.510;2023-05-29T14:36:17;101819.00;;;27.60
15607;BMP180;7865;50.918;4.510;2023-05-29T14:41:18;101807.00;;;27.50
15607;BMP180;7865;50.918;4.510;2023-05-29T14:46:19;101816.00;;;27.30
15607;BMP180;7865;50.918;4.510;2023-05-29T14:51:21;101814.00;;;27.40
15607;BMP180;7865;50.918;4.510;2023-05-29T14:56:24;101822.00;;;27.60
15607;BMP180;7865;50.918;4.510;2023-05-29T15:01:25;101805.00;;;27.90
15607;BMP180;7865;50.918;4.510;2023-05-29T15:06:27;101818.00;;;28.00
15607;BMP180;7865;50.918;4.510;2023-05-29T15:11:30;101823.00;;;27.90
15607;BMP180;7865;50.918;4.510;2023-05-29T15:16:34;101830.00;;;27.30
15607;BMP180;7865;50.918;4.510;2023-05-29T15:21:36;101820.00;;;27.50
15607;BMP180;7865;50.918;4.510;2023-05-29T15:26:38;101813.00;;;27.30
15607;BMP180;7865;50.918;4.510;2023-05-29T15:31:39;101823.00;;;26.60
15607;BMP180;7865;50.918;4.510;2023-05-29T15:36:41;101823.00;;;26.20
15607;BMP180;7865;50.918;4.510;2023-05-29T15:41:42;101825.00;;;25.60
15607;BMP180;7865;50.918;4.510;2023-05-29T15:46:43;101820.00;;;25.00
15607;BMP180;7865;50.918;4.510;2023-05-29T15:51:44;101819.00;;;24.80
15607;BMP180;7865;50.918;4.510;2023-05-29T15:56:46;101811.00;;;24.40
15607;BMP180;7865;50.918;4.510;2023-05-29T16:01:47;101806.00;;;23.80
15607;BMP180;7865;50.918;4.510;2023-05-29T16:06:49;101810.00;;;23.50
15607;BMP180;7865;50.918;4.510;2023-05-29T16:11:50;101814.00;;;23.50
15607;BMP180;7865;50.918;4.510;2023-05-29T16:16:51;101812.00;;;23.30
15607;BMP180;7865;50.918;4.510;2023-05-29T16:21:53;101813.00;;;22.90
15607;BMP180;7865;50.918;4.510;2023-05-29T16:26:54;101818.00;;;22.60
15607;BMP180;7865;50.918;4.510;2023-05-29T16:31:55;101824.00;;;22.30
15607;BMP180;7865;50.918;4.510;2023-05-29T16:36:57;101816.00;;;22.10
15607;BMP180;7865;50.918;4.510;2023-05-29T16:41:58;101812.00;;;21.80
15607;BMP180;7865;50.918;4.510;2023-05-29T16:46:59;101815.00;;;21.70
15607;BMP180;7865;50.918;4.510;2023-05-29T16:52:02;101810.00;;;21.50
15607;BMP180;7865;50.918;4.510;2023-05-29T16:57:07;101810.00;;;21.20
15607;BMP180;7865;50.918;4.510;2023-05-29T17:02:09;101809.00;;;20.90
15607;BMP180;7865;50.918;4.510;2023-05-29T17:07:11;101808.00;;;20.80
15607;BMP180;7865;50.918;4.510;2023-05-29T17:12:12;101819.00;;;20.60
15607;BMP180;7865;50.918;4.510;2023-05-29T17:17:14;101815.00;;;20.50
15607;BMP180;7865;50.918;4.510;2023-05-29T17:22:19;101807.00;;;20.50
15607;BMP180;7865;50.918;4.510;2023-05-29T17:27:21;101806.00;;;20.40
15607;BMP180;7865;50.918;4.510;2023-05-29T17:32:22;101810.00;;;20.30
15607;BMP180;7865;50.918;4.510;2023-05-29T17:37:24;101816.00;;;20.20
15607;BMP180;7865;50.918;4.510;2023-05-29T17:42:25;101819.00;;;20.10
15607;BMP180;7865;50.918;4.510;2023-05-29T17:47:26;101822.00;;;19.90
15607;BMP180;7865;50.918;4.510;2023-05-29T17:52:27;101812.00;;;19.80
15607;BMP180;7865;50.918;4.510;2023-05-29T17:57:29;101822.00;;;19.80
15607;BMP180;7865;50.918;4.510;2023-05-29T18:02:30;101825.00;;;19.70
15607;BMP180;7865;50.918;4.510;2023-05-29T18:07:31;101823.00;;;19.60
15607;BMP180;7865;50.918;4.510;2023-05-29T18:12:32;101826.00;;;19.50
15607;BMP180;7865;50.918;4.510;2023-05-29T18:17:46;101815.00;;;19.40
15607;BMP180;7865;50.918;4.510;2023-05-29T18:22:48;101813.00;;;19.30
15607;BMP180;7865;50.918;4.510;2023-05-29T18:27:49;101813.00;;;19.20
15607;BMP180;7865;50.918;4.510;2023-05-29T18:32:51;101821.00;;;19.10
15607;BMP180;7865;50.918;4.510;2023-05-29T18:37:54;101826.00;;;19.00
15607;BMP180;7865;50.918;4.510;2023-05-29T18:42:56;101825.00;;;18.80
15607;BMP180;7865;50.918;4.510;2023-05-29T18:47:58;101823.00;;;18.70
15607;BMP180;7865;50.918;4.510;2023-05-29T18:52:59;101826.00;;;18.50
15607;BMP180;7865;50.918;4.510;2023-05-29T18:58:01;101828.00;;;18.40
15607;BMP180;7865;50.918;4.510;2023-05-29T19:03:03;101823.00;;;18.10
15607;BMP180;7865;50.918;4.510;2023-05-29T19:08:05;101826.00;;;17.90
15607;BMP180;7865;50.918;4.510;2023-05-29T19:13:11;101834.00;;;17.80
15607;BMP180;7865;50.918;4.510;2023-05-29T19:18:12;101831.00;;;17.60
15607;BMP180;7865;50.918;4.510;2023-05-29T19:23:13;101835.00;;;17.40
15607;BMP180;7865;50.918;4.510;2023-05-29T19:28:15;101837.00;;;17.20
15607;BMP180;7865;50.918;4.510;2023-05-29T19:33:16;101848.00;;;17.00
15607;BMP180;7865;50.918;4.510;2023-05-29T19:38:18;101853.00;;;16.70
15607;BMP180;7865;50.918;4.510;2023-05-29T19:43:19;101855.00;;;16.50
15607;BMP180;7865;50.918;4.510;2023-05-29T19:48:21;101858.00;;;16.30
15607;BMP180;7865;50.918;4.510;2023-05-29T19:53:22;101858.00;;;16.10
15607;BMP180;7865;50.918;4.510;2023-05-29T19:58:23;101864.00;;;15.90
15607;BMP180;7865;50.918;4.510;2023-05-29T20:03:25;101878.00;;;15.80
15607;BMP180;7865;50.918;4.510;2023-05-29T20:08:29;101882.00;;;15.60
15607;BMP180;7865;50.918;4.510;2023-05-29T20:13:30;101889.00;;;15.50
15607;BMP180;7865;50.918;4.510;2023-05-29T20:18:31;101892.00;;;15.40
15607;BMP180;7865;50.918;4.510;2023-05-29T20:23:33;101905.00;;;15.30
15607;BMP180;7865;50.918;4.510;2023-05-29T20:28:34;101907.00;;;15.20
15607;BMP180;7865;50.918;4.510;2023-05-29T20:33:36;101908.00;;;15.10
15607;BMP180;7865;50.918;4.510;2023-05-29T20:38:38;101920.00;;;15.00
15607;BMP180;7865;50.918;4.510;2023-05-29T20:43:39;101920.00;;;14.80
15607;BMP180;7865;50.918;4.510;2023-05-29T20:48:41;101922.00;;;14.60
15607;BMP180;7865;50.918;4.510;2023-05-29T20:53:43;101917.00;;;14.50
15607;BMP180;7865;50.918;4.510;2023-05-29T20:58:44;101924.00;;;14.30
15607;BMP180;7865;50.918;4.510;2023-05-29T21:03:46;101927.00;;;14.20
15607;BMP180;7865;50.918;4.510;2023-05-29T21:08:48;101927.00;;;14.10
15607;BMP180;7865;50.918;4.510;2023-05-29T21:13:49;101928.00;;;14.00
15607;BMP180;7865;50.918;4.510;2023-05-29T21:18:50;101930.00;;;13.90
15607;BMP180;7865;50.918;4.510;2023-05-29T21:23:51;101930.00;;;13.80
15607;BMP180;7865;50.918;4.510;2023-05-29T21:28:55;101918.00;;;13.70
15607;BMP180;7865;50.918;4.510;2023-05-29T21:33:57;101925.00;;;13.60
15607;BMP180;7865;50.918;4.510;2023-05-29T21:38:58;101916.00;;;13.50
15607;BMP180;7865;50.918;4.510;2023-05-29T21:43:59;101931.00;;;13.40
15607;BMP180;7865;50.918;4.510;2023-05-29T21:49:00;101926.00;;;13.40
15607;BMP180;7865;50.918;4.510;2023-05-29T21:54:02;101932.00;;;13.20
15607;BMP180;7865;50.918;4.510;2023-05-29T21:59:04;101930.00;;;13.20
15607;BMP180;7865;50.918;4.510;2023-05-29T22:04:07;101936.00;;;13.10
15607;BMP180;7865;50.918;4.510;2023-05-29T22:09:08;101936.00;;;13.00
15607;BMP180;7865;50.918;4.510;2023-05-29T22:14:09;101937.00;;;12.90
15607;BMP180;7865;50.918;4.510;2023-05-29T22:19:11;101936.00;;;12.90
15607;BMP180;7865;50.918;4.510;2023-05-29T22:24:12;101942.00;;;12.80
15607;BMP180;7865;50.918;4.510;2023-05-29T22:29:14;101948.00;;;12.70
15607;BMP180;7865;50.918;4.510;2023-05-29T22:34:15;101965.00;;;12.60
15607;BMP180;7865;50.918;4.510;2023-05-29T22:39:17;101970.00;;;12.50
15607;BMP180;7865;50.918;4.510;2023-05-29T22:44:20;101967.00;;;12.40
15607;BMP180;7865;50.918;4.510;2023-05-29T22:49:21;101964.00;;;12.30
15607;BMP180;7865;50.918;4.510;2023-05-29T22:54:22;101978.00;;;12.30
15607;BMP180;7865;50.918;4.510;2023-05-29T22:59:24;101974.00;;;12.20
15607;BMP180;7865;50.918;4.510;2023-05-29T23:04:25;101979.00;;;12.10
15607;BMP180;7865;50.918;4.510;2023-05-29T23:09:27;101968.00;;;12.00
15607;BMP180;7865;50.918;4.510;2023-05-29T23:14:28;101977.00;;;11.90
15607;BMP180;7865;50.918;4.510;2023-05-29T23:19:29;101979.00;;;11.90
15607;BMP180;7865;50.918;4.510;2023-05-29T23:24:31;101985.00;;;11.80
15607;BMP180;7865;50.918;4.510;2023-05-29T23:29:32;101993.00;;;11.70
15607;BMP180;7865;50.918;4.510;2023-05-29T23:34:34;102003.00;;;11.70
15607;BMP180;7865;50.918;4.510;2023-05-29T23:39:36;102002.00;;;11.60
15607;BMP180;7865;50.918;4.510;2023-05-29T23:44:37;102000.00;;;11.50
15607;BMP180;7865;50.918;4.510;2023-05-29T23:49:38;102004.00;;;11.50
15607;BMP180;7865;50.918;4.510;2023-05-29T23:54:40;102008.00;;;11.40
15607;BMP180;7865;50.918;4.510;2023-05-29T23:59:41;102008.00;;;11.40
